sensor_id;sensor_type;location;lat;lon;timestamp;P1;durP1;ratioP1;P2;durP2;ratioP2
19848;SDS011;10085;51.120;6.956;2022-11-25T00:00:05;30.10;;;12.43;;
19848;SDS011;10085;51.120;6.956;2022-11-25T00:05:13;21.65;;;9.57;;
19848;SDS011;10085;51.120;6.956;2022-11-25T00:10:16;24.20;;;11.18;;
19848;SDS011;10085;51.120;6.956;2022-11-25T00:15:19;23.00;;;10.55;;
19848;SDS011;10085;51.120;6.956;2022-11-25T00:20:23;23.38;;;10.98;;
19848;SDS011;10085;51.120;6.956;2022-11-25T00:25:26;22.77;;;9.77;;
19848;SDS011;10085;51.120;6.956;2022-11-25T00:30:28;22.27;;;9.65;;
19848;SDS011;10085;51.120;6.956;2022-11-25T00:35:34;21.38;;;9.43;;
19848;SDS011;10085;51.120;6.956;2022-11-25T00:40:37;19.83;;;8.38;;
19848;SDS011;10085;51.120;6.956;2022-11-25T00:45:40;26.45;;;8.55;;
19848;SDS011;10085;51.120;6.956;2022-11-25T00:50:44;22.48;;;8.10;;
19848;SDS011;10085;51.120;6.956;2022-11-25T00:55:47;19.67;;;8.40;;
19848;SDS011;10085;51.120;6.956;2022-11-25T01:01:08;19.70;;;8.38;;
19848;SDS011;10085;51.120;6.956;2022-11-25T01:06:12;19.05;;;8.02;;
19848;SDS011;10085;51.120;6.956;2022-11-25T01:11:15;17.02;;;7.65;;
19848;SDS011;10085;51.120;6.956;2022-11-25T01:16:20;23.60;;;7.68;;
19848;SDS011;10085;51.120;6.956;2022-11-25T01:21:25;15.70;;;7.90;;
19848;SDS011;10085;51.120;6.956;2022-11-25T01:26:29;19.17;;;7.57;;
19848;SDS011;10085;51.120;6.956;2022-11-25T01:31:33;16.35;;;6.25;;
19848;SDS011;10085;51.120;6.956;2022-11-25T01:36:39;13.85;;;6.53;;
19848;SDS011;10085;51.120;6.956;2022-11-25T01:41:42;14.88;;;6.88;;
19848;SDS011;10085;51.120;6.956;2022-11-25T01:46:54;15.77;;;7.55;;
19848;SDS011;10085;51.120;6.956;2022-11-25T01:52:04;14.57;;;6.07;;
19848;SDS011;10085;51.120;6.956;2022-11-25T01:57:10;14.82;;;6.13;;
19848;SDS011;10085;51.120;6.956;2022-11-25T02:02:15;15.52;;;6.78;;
19848;SDS011;10085;51.120;6.956;2022-11-25T02:07:23;17.88;;;6.93;;
19848;SDS011;10085;51.120;6.956;2022-11-25T02:12:28;14.60;;;6.50;;
19848;SDS011;10085;51.120;6.956;2022-11-25T02:17:31;14.50;;;5.10;;
19848;SDS011;10085;51.120;6.956;2022-11-25T02:22:40;13.95;;;5.80;;
19848;SDS011;10085;51.120;6.956;2022-11-25T02:27:51;10.45;;;5.22;;
19848;SDS011;10085;51.120;6.956;2022-11-25T02:32:57;11.13;;;5.45;;
19848;SDS011;10085;51.120;6.956;2022-11-25T02:38:03;11.30;;;5.38;;
19848;SDS011;10085;51.120;6.956;2022-11-25T02:43:09;10.82;;;5.45;;
19848;SDS011;10085;51.120;6.956;2022-11-25T02:48:12;11.88;;;5.60;;
19848;SDS011;10085;51.120;6.956;2022-11-25T02:53:16;12.30;;;4.80;;
19848;SDS011;10085;51.120;6.956;2022-11-25T02:58:20;9.82;;;4.13;;
19848;SDS011;10085;51.120;6.956;2022-11-25T03:03:23;11.45;;;5.15;;
19848;SDS011;10085;51.120;6.956;2022-11-25T03:08:26;10.30;;;5.00;;
19848;SDS011;10085;51.120;6.956;2022-11-25T03:13:30;9.60;;;4.97;;
19848;SDS011;10085;51.120;6.956;2022-11-25T03:18:33;11.30;;;5.05;;
19848;SDS011;10085;51.120;6.956;2022-11-25T03:23:36;9.52;;;4.97;;
19848;SDS011;10085;51.120;6.956;2022-11-25T03:28:40;10.25;;;4.50;;
19848;SDS011;10085;51.120;6.956;2022-11-25T03:33:43;8.73;;;4.55;;
19848;SDS011;10085;51.120;6.956;2022-11-25T03:38:45;7.57;;;4.03;;
19848;SDS011;10085;51.120;6.956;2022-11-25T03:43:50;11.05;;;4.60;;
19848;SDS011;10085;51.120;6.956;2022-11-25T03:48:52;7.22;;;4.05;;
19848;SDS011;10085;51.120;6.956;2022-11-25T03:53:56;8.80;;;4.55;;
19848;SDS011;10085;51.120;6.956;2022-11-25T03:59:00;8.48;;;3.90;;
19848;SDS011;10085;51.120;6.956;2022-11-25T04:04:03;9.27;;;4.45;;
19848;SDS011;10085;51.120;6.956;2022-11-25T04:09:07;9.45;;;3.75;;
19848;SDS011;10085;51.120;6.956;2022-11-25T04:14:14;7.90;;;4.00;;
19848;SDS011;10085;51.120;6.956;2022-11-25T04:19:16;8.20;;;3.60;;
19848;SDS011;10085;51.120;6.956;2022-11-25T04:24:19;7.88;;;3.83;;
19848;SDS011;10085;51.120;6.956;2022-11-25T04:29:24;6.50;;;3.42;;
19848;SDS011;10085;51.120;6.956;2022-11-25T04:34:28;6.75;;;3.88;;
19848;SDS011;10085;51.120;6.956;2022-11-25T04:39:32;6.03;;;3.70;;
19848;SDS011;10085;51.120;6.956;2022-11-25T04:44:44;6.75;;;3.50;;
19848;SDS011;10085;51.120;6.956;2022-11-25T04:50:08;7.22;;;3.65;;
19848;SDS011;10085;51.120;6.956;2022-11-25T04:55:23;5.80;;;3.45;;
19848;SDS011;10085;51.120;6.956;2022-11-25T05:00:28;7.07;;;4.00;;
19848;SDS011;10085;51.120;6.956;2022-11-25T05:05:31;6.25;;;3.70;;
19848;SDS011;10085;51.120;6.956;2022-11-25T05:10:34;8.18;;;3.67;;
19848;SDS011;10085;51.120;6.956;2022-11-25T05:15:38;5.57;;;3.35;;
19848;SDS011;10085;51.120;6.956;2022-11-25T05:20:42;7.05;;;3.40;;
19848;SDS011;10085;51.120;6.956;2022-11-25T05:25:47;5.63;;;3.35;;
19848;SDS011;10085;51.120;6.956;2022-11-25T05:31:20;6.35;;;3.30;;
19848;SDS011;10085;51.120;6.956;2022-11-25T05:36:23;4.72;;;3.15;;
19848;SDS011;10085;51.120;6.956;2022-11-25T05:41:26;7.50;;;2.92;;
19848;SDS011;10085;51.120;6.956;2022-11-25T05:46:30;4.97;;;3.00;;
19848;SDS011;10085;51.120;6.956;2022-11-25T05:51:34;4.40;;;2.83;;
19848;SDS011;10085;51.120;6.956;2022-11-25T05:56:38;4.85;;;2.78;;
19848;SDS011;10085;51.120;6.956;2022-11-25T06:02:08;6.88;;;3.28;;
19848;SDS011;10085;51.120;6.956;2022-11-25T06:07:11;5.53;;;2.92;;
19848;SDS011;10085;51.120;6.956;2022-11-25T06:12:14;4.85;;;2.63;;
19848;SDS011;10085;51.120;6.956;2022-11-25T06:17:23;5.32;;;2.90;;
19848;SDS011;10085;51.120;6.956;2022-11-25T06:22:36;6.97;;;3.22;;
19848;SDS011;10085;51.120;6.956;2022-11-25T06:27:39;7.78;;;3.00;;
19848;SDS011;10085;51.120;6.956;2022-11-25T06:33:03;5.32;;;2.70;;
19848;SDS011;10085;51.120;6.956;2022-11-25T06:38:06;4.95;;;2.78;;
19848;SDS011;10085;51.120;6.956;2022-11-25T06:43:09;6.85;;;2.67;;
19848;SDS011;10085;51.120;6.956;2022-11-25T06:48:13;4.57;;;2.90;;
19848;SDS011;10085;51.120;6.956;2022-11-25T06:53:16;4.93;;;2.70;;
19848;SDS011;10085;51.120;6.956;2022-11-25T06:58:24;3.72;;;2.42;;
19848;SDS011;10085;51.120;6.956;2022-11-25T07:03:38;4.50;;;2.42;;
19848;SDS011;10085;51.120;6.956;2022-11-25T07:08:42;4.40;;;2.53;;
19848;SDS011;10085;51.120;6.956;2022-11-25T07:13:45;4.43;;;2.42;;
19848;SDS011;10085;51.120;6.956;2022-11-25T07:18:50;5.15;;;2.70;;
19848;SDS011;10085;51.120;6.956;2022-11-25T07:23:52;4.70;;;2.50;;
19848;SDS011;10085;51.120;6.956;2022-11-25T07:28:57;4.97;;;2.78;;
19848;SDS011;10085;51.120;6.956;2022-11-25T07:34:03;4.82;;;2.63;;
19848;SDS011;10085;51.120;6.956;2022-11-25T07:39:09;5.40;;;2.83;;
19848;SDS011;10085;51.120;6.956;2022-11-25T07:44:13;4.80;;;2.58;;
19848;SDS011;10085;51.120;6.956;2022-11-25T07:49:25;4.47;;;2.60;;
19848;SDS011;10085;51.120;6.956;2022-11-25T07:54:28;3.85;;;2.25;;
19848;SDS011;10085;51.120;6.956;2022-11-25T07:59:31;5.95;;;2.42;;
19848;SDS011;10085;51.120;6.956;2022-11-25T08:04:36;3.78;;;2.53;;
19848;SDS011;10085;51.120;6.956;2022-11-25T08:09:39;3.83;;;2.60;;
19848;SDS011;10085;51.120;6.956;2022-11-25T08:14:41;5.47;;;2.75;;
19848;SDS011;10085;51.120;6.956;2022-11-25T08:19:45;5.55;;;2.47;;
19848;SDS011;10085;51.120;6.956;2022-11-25T08:24:48;5.07;;;2.60;;
19848;SDS011;10085;51.120;6.956;2022-11-25T08:29:51;3.58;;;2.25;;
19848;SDS011;10085;51.120;6.956;2022-11-25T08:34:55;4.72;;;2.80;;
19848;SDS011;10085;51.120;6.956;2022-11-25T08:39:58;6.72;;;2.40;;
19848;SDS011;10085;51.120;6.956;2022-11-25T08:45:02;5.43;;;2.50;;
19848;SDS011;10085;51.120;6.956;2022-11-25T08:50:07;4.07;;;2.42;;
19848;SDS011;10085;51.120;6.956;2022-11-25T08:55:11;4.28;;;2.38;;
19848;SDS011;10085;51.120;6.956;2022-11-25T09:00:14;4.55;;;2.40;;
19848;SDS011;10085;51.120;6.956;2022-11-25T09:05:19;4.95;;;2.40;;
19848;SDS011;10085;51.120;6.956;2022-11-25T09:10:22;3.70;;;2.22;;
19848;SDS011;10085;51.120;6.956;2022-11-25T09:15:24;4.43;;;2.55;;
19848;SDS011;10085;51.120;6.956;2022-11-25T09:20:29;4.68;;;2.47;;
19848;SDS011;10085;51.120;6.956;2022-11-25T09:25:32;4.28;;;2.55;;
19848;SDS011;10085;51.120;6.956;2022-11-25T09:30:35;4.93;;;2.78;;
19848;SDS011;10085;51.120;6.956;2022-11-25T09:35:40;3.65;;;2.30;;
19848;SDS011;10085;51.120;6.956;2022-11-25T09:40:44;3.80;;;2.40;;
19848;SDS011;10085;51.120;6.956;2022-11-25T09:45:55;3.67;;;2.42;;
19848;SDS011;10085;51.120;6.956;2022-11-25T09:51:21;3.65;;;2.47;;
19848;SDS011;10085;51.120;6.956;2022-11-25T09:56:28;3.95;;;2.30;;
19848;SDS011;10085;51.120;6.956;2022-11-25T10:01:34;3.55;;;2.10;;
19848;SDS011;10085;51.120;6.956;2022-11-25T10:06:49;3.67;;;2.30;;
19848;SDS011;10085;51.120;6.956;2022-11-25T10:11:57;3.90;;;2.50;;
19848;SDS011;10085;51.120;6.956;2022-11-25T10:17:04;4.80;;;2.20;;
19848;SDS011;10085;51.120;6.956;2022-11-25T10:22:16;4.35;;;2.30;;
19848;SDS011;10085;51.120;6.956;2022-11-25T10:27:23;3.30;;;2.10;;
19848;SDS011;10085;51.120;6.956;2022-11-25T10:32:30;3.08;;;2.03;;
19848;SDS011;10085;51.120;6.956;2022-11-25T10:37:38;3.17;;;2.08;;
19848;SDS011;10085;51.120;6.956;2022-11-25T10:42:42;4.18;;;2.17;;
19848;SDS011;10085;51.120;6.956;2022-11-25T10:47:56;3.63;;;2.25;;
19848;SDS011;10085;51.120;6.956;2022-11-25T10:53:10;3.83;;;2.30;;
19848;SDS011;10085;51.120;6.956;2022-11-25T10:58:19;3.63;;;2.15;;
19848;SDS011;10085;51.120;6.956;2022-11-25T11:03:28;3.38;;;2.08;;
19848;SDS011;10085;51.120;6.956;2022-11-25T11:08:37;4.22;;;2.38;;
19848;SDS011;10085;51.120;6.956;2022-11-25T11:13:40;3.47;;;2.17;;
19848;SDS011;10085;51.120;6.956;2022-11-25T11:18:43;3.60;;;2.28;;
19848;SDS011;10085;51.120;6.956;2022-11-25T11:23:48;3.90;;;2.20;;
19848;SDS011;10085;51.120;6.956;2022-11-25T11:29:02;3.58;;;2.22;;
19848;SDS011;10085;51.120;6.956;2022-11-25T11:34:20;3.65;;;2.08;;
19848;SDS011;10085;51.120;6.956;2022-11-25T11:39:38;3.63;;;1.95;;
19848;SDS011;10085;51.120;6.956;2022-11-25T11:44:56;4.57;;;2.10;;
19848;SDS011;10085;51.120;6.956;2022-11-25T11:50:11;5.65;;;2.03;;
19848;SDS011;10085;51.120;6.956;2022-11-25T11:55:27;3.13;;;1.90;;
19848;SDS011;10085;51.120;6.956;2022-11-25T12:00:39;4.20;;;2.00;;
19848;SDS011;10085;51.120;6.956;2022-11-25T12:05:48;3.95;;;2.10;;
19848;SDS011;10085;51.120;6.956;2022-11-25T12:10:57;5.28;;;1.90;;
19848;SDS011;10085;51.120;6.956;2022-11-25T12:16:03;6.55;;;1.80;;
19848;SDS011;10085;51.120;6.956;2022-11-25T12:21:12;4.82;;;2.10;;
19848;SDS011;10085;51.120;6.956;2022-11-25T12:26:27;4.38;;;2.25;;
19848;SDS011;10085;51.120;6.956;2022-11-25T12:31:34;3.58;;;2.00;;
19848;SDS011;10085;51.120;6.956;2022-11-25T12:36:39;3.00;;;2.15;;
19848;SDS011;10085;51.120;6.956;2022-11-25T12:41:48;4.35;;;2.17;;
19848;SDS011;10085;51.120;6.956;2022-11-25T12:46:53;4.97;;;2.03;;
19848;SDS011;10085;51.120;6.956;2022-11-25T12:52:07;3.35;;;2.00;;
19848;SDS011;10085;51.120;6.956;2022-11-25T12:57:35;5.03;;;2.00;;
19848;SDS011;10085;51.120;6.956;2022-11-25T13:03:02;5.22;;;2.00;;
19848;SDS011;10085;51.120;6.956;2022-11-25T13:08:18;4.40;;;2.03;;
19848;SDS011;10085;51.120;6.956;2022-11-25T13:13:36;4.20;;;2.22;;
19848;SDS011;10085;51.120;6.956;2022-11-25T13:18:47;3.63;;;2.20;;
19848;SDS011;10085;51.120;6.956;2022-11-25T13:23:51;7.18;;;2.30;;
19848;SDS011;10085;51.120;6.956;2022-11-25T13:28:59;4.03;;;2.10;;
19848;SDS011;10085;51.120;6.956;2022-11-25T13:34:06;6.13;;;1.98;;
19848;SDS011;10085;51.120;6.956;2022-11-25T13:39:18;4.03;;;2.30;;
19848;SDS011;10085;51.120;6.956;2022-11-25T13:44:32;4.72;;;2.17;;
19848;SDS011;10085;51.120;6.956;2022-11-25T13:49:41;9.90;;;2.17;;
19848;SDS011;10085;51.120;6.956;2022-11-25T13:54:51;17.48;;;3.15;;
19848;SDS011;10085;51.120;6.956;2022-11-25T13:59:58;13.20;;;3.20;;
19848;SDS011;10085;51.120;6.956;2022-11-25T14:05:21;17.70;;;3.22;;
19848;SDS011;10085;51.120;6.956;2022-11-25T14:10:57;10.80;;;2.70;;
19848;SDS011;10085;51.120;6.956;2022-11-25T14:16:15;15.10;;;3.80;;
19848;SDS011;10085;51.120;6.956;2022-11-25T14:21:34;10.40;;;2.70;;
19848;SDS011;10085;51.120;6.956;2022-11-25T14:26:45;7.50;;;3.10;;
19848;SDS011;10085;51.120;6.956;2022-11-25T14:31:52;9.88;;;2.63;;
19848;SDS011;10085;51.120;6.956;2022-11-25T14:36:58;8.65;;;2.67;;
19848;SDS011;10085;51.120;6.956;2022-11-25T14:42:05;8.07;;;2.70;;
19848;SDS011;10085;51.120;6.956;2022-11-25T14:47:11;8.30;;;2.83;;
19848;SDS011;10085;51.120;6.956;2022-11-25T14:52:17;6.43;;;2.58;;
19848;SDS011;10085;51.120;6.956;2022-11-25T14:57:22;10.23;;;2.70;;
19848;SDS011;10085;51.120;6.956;2022-11-25T15:02:28;5.78;;;2.22;;
19848;SDS011;10085;51.120;6.956;2022-11-25T15:07:32;7.20;;;2.33;;
19848;SDS011;10085;51.120;6.956;2022-11-25T15:12:35;6.85;;;2.55;;
19848;SDS011;10085;51.120;6.956;2022-11-25T15:17:47;6.03;;;2.60;;
19848;SDS011;10085;51.120;6.956;2022-11-25T15:22:50;7.47;;;2.40;;
19848;SDS011;10085;51.120;6.956;2022-11-25T15:27:54;6.28;;;2.17;;
19848;SDS011;10085;51.120;6.956;2022-11-25T15:32:58;4.85;;;2.10;;
19848;SDS011;10085;51.120;6.956;2022-11-25T15:38:15;6.40;;;2.50;;
19848;SDS011;10085;51.120;6.956;2022-11-25T15:43:19;9.50;;;2.65;;
19848;SDS011;10085;51.120;6.956;2022-11-25T15:48:26;7.22;;;2.22;;
19848;SDS011;10085;51.120;6.956;2022-11-25T15:53:30;5.88;;;2.40;;
19848;SDS011;10085;51.120;6.956;2022-11-25T15:58:39;6.50;;;2.28;;
19848;SDS011;10085;51.120;6.956;2022-11-25T16:03:44;7.03;;;2.30;;
19848;SDS011;10085;51.120;6.956;2022-11-25T16:08:51;5.45;;;2.20;;
19848;SDS011;10085;51.120;6.956;2022-11-25T16:13:55;6.10;;;2.10;;
19848;SDS011;10085;51.120;6.956;2022-11-25T16:19:19;4.97;;;2.35;;
19848;SDS011;10085;51.120;6.956;2022-11-25T16:24:26;7.25;;;2.35;;
19848;SDS011;10085;51.120;6.956;2022-11-25T16:29:50;3.67;;;2.30;;
19848;SDS011;10085;51.120;6.956;2022-11-25T16:34:59;3.53;;;2.10;;
19848;SDS011;10085;51.120;6.956;2022-11-25T16:40:08;3.42;;;2.03;;
19848;SDS011;10085;51.120;6.956;2022-11-25T16:45:14;4.43;;;1.92;;
19848;SDS011;10085;51.120;6.956;2022-11-25T16:50:21;5.15;;;2.35;;
19848;SDS011;10085;51.120;6.956;2022-11-25T16:55:24;5.88;;;2.25;;
19848;SDS011;10085;51.120;6.956;2022-11-25T17:00:26;6.13;;;2.17;;
19848;SDS011;10085;51.120;6.956;2022-11-25T17:05:31;9.23;;;2.22;;
19848;SDS011;10085;51.120;6.956;2022-11-25T17:10:34;4.78;;;2.03;;
19848;SDS011;10085;51.120;6.956;2022-11-25T17:15:37;5.15;;;2.35;;
19848;SDS011;10085;51.120;6.956;2022-11-25T17:20:41;3.45;;;2.10;;
19848;SDS011;10085;51.120;6.956;2022-11-25T17:25:58;5.40;;;2.25;;
19848;SDS011;10085;51.120;6.956;2022-11-25T17:31:57;6.28;;;1.92;;
19848;SDS011;10085;51.120;6.956;2022-11-25T17:37:02;6.38;;;2.45;;
19848;SDS011;10085;51.120;6.956;2022-11-25T17:42:05;4.32;;;1.90;;
19848;SDS011;10085;51.120;6.956;2022-11-25T17:47:10;3.72;;;1.90;;
19848;SDS011;10085;51.120;6.956;2022-11-25T17:52:15;2.63;;;1.90;;
19848;SDS011;10085;51.120;6.956;2022-11-25T17:57:18;3.08;;;1.80;;
19848;SDS011;10085;51.120;6.956;2022-11-25T18:02:22;4.28;;;2.00;;
19848;SDS011;10085;51.120;6.956;2022-11-25T18:07:26;4.63;;;2.00;;
19848;SDS011;10085;51.120;6.956;2022-11-25T18:12:29;3.03;;;1.77;;
19848;SDS011;10085;51.120;6.956;2022-11-25T18:17:34;5.35;;;2.20;;
19848;SDS011;10085;51.120;6.956;2022-11-25T18:22:39;3.63;;;1.90;;
19848;SDS011;10085;51.120;6.956;2022-11-25T18:27:45;6.90;;;2.03;;
19848;SDS011;10085;51.120;6.956;2022-11-25T18:32:48;3.20;;;1.90;;
19848;SDS011;10085;51.120;6.956;2022-11-25T18:37:53;4.13;;;2.20;;
19848;SDS011;10085;51.120;6.956;2022-11-25T18:42:58;5.55;;;2.10;;
19848;SDS011;10085;51.120;6.956;2022-11-25T18:48:04;5.57;;;1.85;;
19848;SDS011;10085;51.120;6.956;2022-11-25T18:53:14;3.65;;;1.70;;
19848;SDS011;10085;51.120;6.956;2022-11-25T18:58:17;4.55;;;1.80;;
19848;SDS011;10085;51.120;6.956;2022-11-25T19:03:22;4.35;;;1.80;;
19848;SDS011;10085;51.120;6.956;2022-11-25T19:08:28;3.95;;;2.10;;
19848;SDS011;10085;51.120;6.956;2022-11-25T19:13:31;2.80;;;1.77;;
19848;SDS011;10085;51.120;6.956;2022-11-25T19:18:35;4.10;;;1.85;;
19848;SDS011;10085;51.120;6.956;2022-11-25T19:23:39;5.13;;;1.95;;
19848;SDS011;10085;51.120;6.956;2022-11-25T19:28:42;7.20;;;1.90;;
19848;SDS011;10085;51.120;6.956;2022-11-25T19:33:47;2.47;;;1.60;;
19848;SDS011;10085;51.120;6.956;2022-11-25T19:38:52;4.78;;;1.92;;
19848;SDS011;10085;51.120;6.956;2022-11-25T19:43:55;4.32;;;1.83;;
19848;SDS011;10085;51.120;6.956;2022-11-25T19:48:59;3.08;;;1.98;;
19848;SDS011;10085;51.120;6.956;2022-11-25T19:54:04;5.20;;;2.00;;
19848;SDS011;10085;51.120;6.956;2022-11-25T19:59:07;4.35;;;2.20;;
19848;SDS011;10085;51.120;6.956;2022-11-25T20:04:12;3.25;;;1.90;;
19848;SDS011;10085;51.120;6.956;2022-11-25T20:09:19;3.65;;;2.10;;
19848;SDS011;10085;51.120;6.956;2022-11-25T20:14:22;4.18;;;1.80;;
19848;SDS011;10085;51.120;6.956;2022-11-25T20:19:24;3.42;;;1.55;;
19848;SDS011;10085;51.120;6.956;2022-11-25T20:24:28;2.80;;;1.98;;
19848;SDS011;10085;51.120;6.956;2022-11-25T20:29:31;2.72;;;1.80;;
19848;SDS011;10085;51.120;6.956;2022-11-25T20:34:34;3.45;;;2.00;;
19848;SDS011;10085;51.120;6.956;2022-11-25T20:39:43;3.20;;;1.92;;
19848;SDS011;10085;51.120;6.956;2022-11-25T20:44:47;3.05;;;1.80;;
19848;SDS011;10085;51.120;6.956;2022-11-25T20:49:57;2.97;;;2.05;;
19848;SDS011;10085;51.120;6.956;2022-11-25T20:55:05;4.78;;;1.92;;
19848;SDS011;10085;51.120;6.956;2022-11-25T21:00:18;3.78;;;1.90;;
19848;SDS011;10085;51.120;6.956;2022-11-25T21:05:22;3.17;;;1.80;;
19848;SDS011;10085;51.120;6.956;2022-11-25T21:10:27;4.43;;;2.05;;
19848;SDS011;10085;51.120;6.956;2022-11-25T21:15:31;5.03;;;2.25;;
19848;SDS011;10085;51.120;6.956;2022-11-25T21:20:33;3.80;;;2.10;;
19848;SDS011;10085;51.120;6.956;2022-11-25T21:25:38;3.90;;;1.85;;
19848;SDS011;10085;51.120;6.956;2022-11-25T21:30:40;3.53;;;1.95;;
19848;SDS011;10085;51.120;6.956;2022-11-25T21:35:45;3.40;;;2.00;;
19848;SDS011;10085;51.120;6.956;2022-11-25T21:40:52;5.70;;;1.90;;
19848;SDS011;10085;51.120;6.956;2022-11-25T21:45:56;3.92;;;2.05;;
19848;SDS011;10085;51.120;6.956;2022-11-25T21:51:01;4.35;;;2.17;;
19848;SDS011;10085;51.120;6.956;2022-11-25T21:56:10;3.30;;;2.00;;
19848;SDS011;10085;51.120;6.956;2022-11-25T22:01:17;3.28;;;2.08;;
19848;SDS011;10085;51.120;6.956;2022-11-25T22:06:21;2.42;;;1.73;;
19848;SDS011;10085;51.120;6.956;2022-11-25T22:11:28;3.15;;;2.00;;
19848;SDS011;10085;51.120;6.956;2022-11-25T22:16:32;4.90;;;2.35;;
19848;SDS011;10085;51.120;6.956;2022-11-25T22:21:36;3.40;;;2.03;;
19848;SDS011;10085;51.120;6.956;2022-11-25T22:26:40;2.90;;;1.85;;
19848;SDS011;10085;51.120;6.956;2022-11-25T22:31:44;4.18;;;2.17;;
19848;SDS011;10085;51.120;6.956;2022-11-25T22:36:47;5.30;;;2.03;;
19848;SDS011;10085;51.120;6.956;2022-11-25T22:41:53;4.78;;;2.22;;
19848;SDS011;10085;51.120;6.956;2022-11-25T22:46:57;3.63;;;2.15;;
19848;SDS011;10085;51.120;6.956;2022-11-25T22:52:00;4.25;;;2.25;;
19848;SDS011;10085;51.120;6.956;2022-11-25T22:57:04;3.35;;;2.17;;
19848;SDS011;10085;51.120;6.956;2022-11-25T23:02:08;3.75;;;2.13;;
19848;SDS011;10085;51.120;6.956;2022-11-25T23:07:13;4.80;;;2.30;;
19848;SDS011;10085;51.120;6.956;2022-11-25T23:12:17;3.55;;;1.90;;
19848;SDS011;10085;51.120;6.956;2022-11-25T23:17:21;4.18;;;2.30;;
19848;SDS011;10085;51.120;6.956;2022-11-25T23:22:25;3.90;;;2.17;;
19848;SDS011;10085;51.120;6.956;2022-11-25T23:27:29;4.88;;;2.38;;
19848;SDS011;10085;51.120;6.956;2022-11-25T23:32:31;4.85;;;2.35;;
19848;SDS011;10085;51.120;6.956;2022-11-25T23:37:34;5.63;;;2.30;;
19848;SDS011;10085;51.120;6.956;2022-11-25T23:42:38;4.93;;;2.30;;
19848;SDS011;10085;51.120;6.956;2022-11-25T23:47:41;5.07;;;2.40;;
19848;SDS011;10085;51.120;6.956;2022-11-25T23:52:44;5.35;;;2.42;;
19848;SDS011;10085;51.120;6.956;2022-11-25T23:57:48;5.90;;;3.05;;
